Time;durP1;ratioP1;P1;durP2;ratioP2;P2;SDS_P1;SDS_P2;PMS_P1;PMS_P2;Temp;Humidity;BMP_temperature;BMP_pressure;BME280_temperature;BME280_humidity;BME280_pressure;Samples;Min_cycle;Max_cycle;Signal;HPM_P1;HPM_P2
2022/12/24 00:01:23;;;;;;;15.20;4.68;;;;;;;6.38;100.00;99959.00;5025832;28;20033;-54
2022/12/24 00:03:48;;;;;;;10.88;4.13;;;;;;;6.39;100.00;99960.63;5018652;28;20045;-56
2022/12/24 00:06:22;;;;;;;19.42;5.68;;;;;;;6.43;100.00;99964.53;5025926;28;20478;-59
2022/12/24 00:08:48;;;;;;;11.00;1.80;;;;;;;6.37;100.00;99965.25;5017725;28;20033;-56
2022/12/24 00:11:13;;;;;;;11.90;2.63;;;;;;;6.39;100.00;99973.78;5025592;28;20045;-59
2022/12/24 00:13:38;;;;;;;12.50;2.15;;;;;;;6.38;100.00;99983.50;5021480;28;20041;-59
2022/12/24 00:16:04;;;;;;;7.72;1.35;;;;;;;6.50;100.00;99992.63;5032511;28;20471;-54
2022/12/24 00:18:30;;;;;;;8.32;1.88;;;;;;;6.50;100.00;99989.16;5018584;28;20037;-54
2022/12/24 00:20:55;;;;;;;10.90;3.78;;;;;;;6.58;100.00;100004.91;5025710;28;20025;-54
2022/12/24 00:23:20;;;;;;;4.97;2.17;;;;;;;6.54;100.00;99998.38;5018257;28;20076;-57
2022/12/24 00:25:46;;;;;;;16.10;2.97;;;;;;;6.54;100.00;99999.19;5023907;28;20021;-56
2022/12/24 00:28:13;;;;;;;16.02;4.38;;;;;;;6.58;100.00;100004.91;5029931;28;20045;-57
2022/12/24 00:30:40;;;;;;;12.82;2.03;;;;;;;6.68;100.00;100007.31;5024266;28;20033;-57
2022/12/24 00:33:05;;;;;;;10.77;1.55;;;;;;;6.88;100.00;100008.44;5021180;28;20037;-54
2022/12/24 00:35:35;;;;;;;15.82;2.15;;;;;;;6.90;100.00;100005.66;5024720;28;20356;-59
2022/12/24 00:38:02;;;;;;;8.10;2.35;;;;;;;6.89;100.00;100006.63;5026252;28;20490;-57
2022/12/24 00:40:28;;;;;;;15.82;3.47;;;;;;;6.95;100.00;100011.22;5023831;28;20387;-57
2022/12/24 00:42:53;;;;;;;7.65;1.70;;;;;;;6.99;100.00;100015.09;5019311;28;20032;-57
2022/12/24 00:45:18;;;;;;;11.10;3.05;;;;;;;7.05;100.00;100010.94;5023484;28;20032;-58
2022/12/24 00:47:44;;;;;;;6.03;2.22;;;;;;;7.10;100.00;100005.94;5022049;28;20132;-57
2022/12/24 00:50:09;;;;;;;9.63;2.65;;;;;;;7.13;100.00;100009.06;5023667;28;20073;-56
2022/12/24 00:52:34;;;;;;;17.55;2.42;;;;;;;7.07;100.00;100020.28;5020923;28;20026;-58
2022/12/24 00:55:00;;;;;;;12.48;2.05;;;;;;;7.10;100.00;100027.03;5021587;28;20031;-58
2022/12/24 00:57:25;;;;;;;17.75;2.35;;;;;;;7.13;100.00;100018.78;5019736;28;20029;-59
2022/12/24 00:59:50;;;;;;;9.88;2.20;;;;;;;7.22;100.00;100023.78;5019727;28;20069;-57
2022/12/24 01:02:16;;;;;;;11.13;2.05;;;;;;;7.25;100.00;100029.69;5022140;28;20068;-59
2022/12/24 01:07:25;;;;;;;12.57;3.42;;;;;;;6.98;100.00;100031.94;5018226;28;20045;-57
2022/12/24 01:09:51;;;;;;;10.77;2.20;;;;;;;6.89;100.00;100028.56;5018492;28;20466;-57
2022/12/24 01:12:16;;;;;;;12.65;3.05;;;;;;;6.78;100.00;100019.22;5022346;28;20037;-56
2022/12/24 01:14:41;;;;;;;10.90;4.93;;;;;;;6.65;100.00;100018.19;5019182;28;20368;-57
2022/12/24 01:17:07;;;;;;;11.85;2.25;;;;;;;6.61;100.00;100017.75;5027115;28;20038;-55
2022/12/24 01:19:32;;;;;;;28.48;4.20;;;;;;;6.52;100.00;100021.41;5023405;28;20413;-54
2022/12/24 01:21:58;;;;;;;11.77;2.17;;;;;;;6.41;100.00;100016.56;5027133;28;20061;-57
2022/12/24 01:24:23;;;;;;;11.43;3.35;;;;;;;6.35;100.00;100023.38;5022005;28;20390;-56
2022/12/24 01:26:48;;;;;;;13.20;1.75;;;;;;;6.33;100.00;100022.72;5022252;28;20522;-58
2022/12/24 01:29:14;;;;;;;8.88;2.70;;;;;;;6.34;100.00;100033.06;5021143;28;20471;-59
2022/12/24 01:31:40;;;;;;;22.48;5.32;;;;;;;6.36;100.00;100037.34;5024404;28;20120;-57
2022/12/24 01:34:05;;;;;;;14.50;3.90;;;;;;;6.38;100.00;100035.38;5024197;28;20108;-54
2022/12/24 01:36:31;;;;;;;7.53;1.83;;;;;;;6.30;100.00;100039.69;5018509;28;20045;-55
2022/12/24 01:38:56;;;;;;;8.18;0.80;;;;;;;6.25;100.00;100042.00;5020575;28;20034;-59
2022/12/24 01:44:27;;;;;;;16.55;1.55;;;;;;;6.23;100.00;100051.88;5021495;28;20111;-56
2022/12/24 01:47:11;;;;;;;6.13;1.00;;;;;;;6.22;100.00;100050.25;5016990;28;20118;-57
2022/12/24 01:49:42;;;;;;;9.95;1.30;;;;;;;6.22;100.00;100057.31;5024579;28;20088;-59
2022/12/24 01:52:15;;;;;;;12.98;2.47;;;;;;;6.28;100.00;100057.47;5025888;28;20048;-57
2022/12/24 01:54:49;;;;;;;13.30;2.00;;;;;;;6.33;100.00;100063.03;5024128;28;20021;-56
2022/12/24 01:57:22;;;;;;;14.55;2.78;;;;;;;6.32;100.00;100069.28;5021835;28;20021;-54
2022/12/24 01:59:52;;;;;;;9.77;2.90;;;;;;;6.24;100.00;100066.69;5024003;28;20021;-54
2022/12/24 02:02:19;;;;;;;9.52;1.58;;;;;;;6.17;100.00;100076.28;5031414;28;20040;-53
2022/12/24 02:04:57;;;;;;;17.30;4.18;;;;;;;6.19;100.00;100073.47;5021636;28;20025;-55
2022/12/24 02:07:23;;;;;;;13.70;2.35;;;;;;;6.23;100.00;100070.31;5016522;28;20033;-55
2022/12/24 02:09:55;;;;;;;10.40;2.30;;;;;;;6.16;100.00;100072.00;5020927;28;20039;-58
2022/12/24 02:12:21;;;;;;;14.90;3.75;;;;;;;6.08;100.00;100079.94;5019915;28;20222;-59
2022/12/24 02:14:46;;;;;;;11.15;1.75;;;;;;;6.06;100.00;100068.75;5018491;28;20276;-59
2022/12/24 02:17:45;;;;;;;23.67;4.38;;;;;;;6.13;100.00;100079.44;5018392;28;20487;-53
2022/12/24 02:20:25;;;;;;;9.18;2.10;;;;;;;6.13;100.00;100074.97;5024073;28;20491;-58
2022/12/24 02:22:59;;;;;;;15.05;2.35;;;;;;;6.12;100.00;100083.88;5019962;28;20048;-54
2022/12/24 02:26:02;;;;;;;12.90;2.38;;;;;;;6.16;100.00;100087.78;5020618;28;20037;-60
2022/12/24 02:28:51;;;;;;;12.73;4.03;;;;;;;6.11;100.00;100100.66;5025387;28;20060;-57
2022/12/24 02:31:26;;;;;;;21.63;3.15;;;;;;;6.11;100.00;100095.38;5024368;28;20033;-58
2022/12/24 02:34:16;;;;;;;12.40;1.20;;;;;;;6.09;100.00;100100.00;5019860;28;20040;-54
2022/12/24 02:36:50;;;;;;;6.35;0.85;;;;;;;6.00;100.00;100095.75;5015804;28;20544;-56
2022/12/24 02:39:27;;;;;;;8.68;2.45;;;;;;;5.83;100.00;100101.03;5024868;28;20072;-59
2022/12/24 02:42:07;;;;;;;7.40;1.30;;;;;;;5.75;100.00;100103.69;5021138;28;20030;-56
2022/12/24 02:44:41;;;;;;;13.05;2.90;;;;;;;5.75;100.00;100108.97;5019500;28;20134;-53
2022/12/24 02:47:08;;;;;;;9.63;1.08;;;;;;;5.77;100.00;100108.81;5025880;28;20067;-58
2022/12/24 02:49:35;;;;;;;7.90;1.50;;;;;;;5.77;100.00;100114.88;5023829;28;20530;-58
2022/12/24 02:52:00;;;;;;;10.73;2.05;;;;;;;5.71;100.00;100101.59;5026671;28;20041;-56
2022/12/24 02:54:26;;;;;;;6.03;2.13;;;;;;;5.55;100.00;100112.94;5022693;28;20080;-58
2022/12/24 02:57:16;;;;;;;13.18;1.38;;;;;;;5.37;100.00;100107.88;5024132;28;20064;-58
2022/12/24 02:59:59;;;;;;;5.40;1.75;;;;;;;5.23;100.00;100109.38;5018088;28;20376;-58
2022/12/24 03:02:44;;;;;;;9.20;3.22;;;;;;;5.02;100.00;100112.50;5024260;28;20417;-58
2022/12/24 03:05:21;;;;;;;8.45;2.05;;;;;;;4.88;100.00;100110.50;5025209;28;20164;-53
2022/12/24 03:08:05;;;;;;;6.88;0.82;;;;;;;4.79;100.00;100107.06;5027096;28;20479;-60
2022/12/24 03:10:45;;;;;;;7.38;1.70;;;;;;;4.70;100.00;100115.91;5026342;28;20036;-60
2022/12/24 03:13:14;;;;;;;7.60;1.55;;;;;;;4.70;100.00;100113.28;5022078;28;20022;-54
2022/12/24 03:15:41;;;;;;;5.97;1.52;;;;;;;4.58;100.00;100112.78;5019799;28;20056;-56
2022/12/24 03:18:09;;;;;;;6.00;0.60;;;;;;;4.51;100.00;100109.97;5023513;28;20503;-53
2022/12/24 03:20:42;;;;;;;7.10;2.35;;;;;;;4.41;100.00;100122.41;5025152;28;20278;-56
2022/12/24 03:23:08;;;;;;;5.90;1.50;;;;;;;4.42;100.00;100110.94;5019577;28;20044;-57
2022/12/24 03:25:37;;;;;;;9.65;2.17;;;;;;;4.41;100.00;100108.47;5024233;28;20490;-54
2022/12/24 03:28:05;;;;;;;6.97;3.10;;;;;;;4.45;100.00;100126.38;5029336;28;20493;-57
2022/12/24 03:30:31;;;;;;;8.10;1.17;;;;;;;4.42;100.00;100120.63;5035051;28;20041;-57
2022/12/24 03:32:57;;;;;;;11.95;3.40;;;;;;;4.36;100.00;100122.06;5029795;28;20031;-57
2022/12/24 03:35:22;;;;;;;9.52;0.77;;;;;;;4.42;100.00;100115.38;5026180;28;20041;-58
2022/12/24 03:37:48;;;;;;;3.38;1.17;;;;;;;4.46;100.00;100127.19;5022268;28;20022;-58
2022/12/24 03:40:13;;;;;;;6.25;0.50;;;;;;;4.54;100.00;100121.94;5029072;28;20329;-53
2022/12/24 03:42:39;;;;;;;8.48;1.98;;;;;;;4.63;100.00;100130.69;5024978;28;20501;-60
2022/12/24 03:45:05;;;;;;;4.72;1.95;;;;;;;4.58;100.00;100146.91;5023878;28;20029;-59
2022/12/24 03:47:31;;;;;;;2.42;0.75;;;;;;;4.62;100.00;100142.16;5028675;28;20029;-54
2022/12/24 03:49:56;;;;;;;10.63;1.05;;;;;;;4.61;100.00;100151.03;5023926;28;20391;-60
2022/12/24 03:52:22;;;;;;;8.32;1.33;;;;;;;4.63;100.00;100157.75;5027234;28;20025;-54
2022/12/24 03:54:47;;;;;;;22.33;4.20;;;;;;;4.67;100.00;100150.38;5015271;28;20022;-59
2022/12/24 03:57:12;;;;;;;12.48;1.67;;;;;;;4.59;100.00;100146.75;5027740;28;20103;-55
2022/12/24 03:59:38;;;;;;;5.65;1.73;;;;;;;4.54;100.00;100146.44;5023353;28;20419;-57
2022/12/24 04:02:03;;;;;;;4.32;2.00;;;;;;;4.62;100.00;100150.03;5026945;28;20598;-56
2022/12/24 04:04:29;;;;;;;9.80;1.52;;;;;;;4.63;100.00;100135.94;5017092;28;20037;-55
2022/12/24 04:06:54;;;;;;;15.45;0.65;;;;;;;4.55;100.00;100129.69;5021553;28;20026;-59
2022/12/24 04:09:20;;;;;;;9.57;1.13;;;;;;;4.53;100.00;100141.31;5027305;28;20026;-56
2022/12/24 04:11:45;;;;;;;9.45;1.83;;;;;;;4.68;100.00;100131.84;5021155;28;20065;-59
2022/12/24 04:14:10;;;;;;;10.23;2.33;;;;;;;4.71;100.00;100146.44;5030505;28;20067;-55
2022/12/24 04:16:36;;;;;;;9.93;3.55;;;;;;;4.73;100.00;100149.75;5025595;28;20037;-55
2022/12/24 04:19:01;;;;;;;10.48;1.10;;;;;;;4.82;100.00;100161.91;5023460;28;20080;-57
2022/12/24 04:21:27;;;;;;;12.70;1.55;;;;;;;4.87;100.00;100161.41;5021799;28;20029;-57
2022/12/24 04:23:52;;;;;;;18.20;2.70;;;;;;;4.90;100.00;100153.22;5020153;28;20042;-59
2022/12/24 04:26:17;;;;;;;12.60;2.20;;;;;;;5.01;100.00;100158.97;5020434;28;20064;-52
2022/12/24 04:28:43;;;;;;;14.10;1.08;;;;;;;5.12;100.00;100170.97;5023353;28;20018;-52
2022/12/24 04:31:11;;;;;;;14.65;2.08;;;;;;;5.05;100.00;100183.13;5025342;28;20433;-53
2022/12/24 04:33:37;;;;;;;12.88;2.72;;;;;;;4.89;100.00;100183.09;5023557;28;20116;-56
2022/12/24 04:36:05;;;;;;;2.90;0.35;;;;;;;4.63;100.00;100194.53;5025162;28;20421;-55
2022/12/24 04:38:31;;;;;;;14.57;2.05;;;;;;;4.37;100.00;100189.34;5022549;28;20467;-55
2022/12/24 04:41:09;;;;;;;4.38;0.50;;;;;;;4.23;100.00;100197.78;5024019;28;20075;-53
2022/12/24 04:43:34;;;;;;;3.47;0.65;;;;;;;4.03;100.00;100205.91;5024173;28;20109;-57
2022/12/24 04:46:13;;;;;;;2.42;0.68;;;;;;;3.99;100.00;100206.38;5028296;28;20495;-53
2022/12/24 04:48:40;;;;;;;2.60;0.90;;;;;;;3.91;100.00;100207.94;5021141;28;20053;-53
2022/12/24 04:51:06;;;;;;;6.55;0.50;;;;;;;3.86;100.00;100204.97;5022340;28;20032;-56
2022/12/24 04:53:33;;;;;;;9.43;1.38;;;;;;;3.87;100.00;100216.28;5022710;28;20064;-57
2022/12/24 04:55:59;;;;;;;8.88;1.75;;;;;;;3.83;100.00;100207.91;5018542;28;20037;-59
2022/12/24 04:58:25;;;;;;;3.83;0.55;;;;;;;3.83;100.00;100209.72;5020717;28;20064;-54
2022/12/24 05:00:50;;;;;;;5.53;1.00;;;;;;;3.66;100.00;100214.81;5023291;28;20056;-59
2022/12/24 05:03:16;;;;;;;4.00;0.68;;;;;;;3.58;100.00;100212.16;5025680;28;20040;-58
2022/12/24 05:05:41;;;;;;;3.70;1.20;;;;;;;3.48;100.00;100206.16;5024233;28;20033;-58
2022/12/24 05:08:06;;;;;;;2.15;0.60;;;;;;;3.35;100.00;100208.34;5031730;28;20626;-56
2022/12/24 05:10:32;;;;;;;9.93;2.38;;;;;;;3.26;100.00;100204.84;5026522;28;20720;-58
2022/12/24 05:12:57;;;;;;;4.78;1.33;;;;;;;3.25;100.00;100211.03;5021416;28;20029;-56
2022/12/24 05:15:23;;;;;;;12.00;2.20;;;;;;;3.14;100.00;100209.47;5021595;28;20036;-59
2022/12/24 05:17:48;;;;;;;4.10;1.60;;;;;;;3.11;100.00;100212.41;5024415;28;20371;-56
2022/12/24 05:20:14;;;;;;;3.85;0.77;;;;;;;3.04;100.00;100199.06;5022430;28;20026;-60
2022/12/24 05:28:09;;;;;;;1.40;0.45;;;;;;;2.95;100.00;100228.78;5021854;28;20398;-58
2022/12/24 05:30:35;;;;;;;2.22;0.50;;;;;;;2.93;100.00;100233.34;5028489;28;20097;-57
2022/12/24 05:33:00;;;;;;;2.47;0.75;;;;;;;3.02;100.00;100223.75;5027671;28;20032;-56
2022/12/24 05:35:25;;;;;;;8.93;1.65;;;;;;;2.95;100.00;100230.59;5019453;28;20112;-57
2022/12/24 05:37:50;;;;;;;8.85;0.85;;;;;;;3.00;100.00;100223.91;5025663;28;20045;-53
2022/12/24 05:40:16;;;;;;;5.68;1.00;;;;;;;2.89;100.00;100225.91;5022842;28;20079;-55
2022/12/24 05:42:41;;;;;;;4.85;0.28;;;;;;;2.87;100.00;100226.09;5027066;28;20065;-56
2022/12/24 05:45:07;;;;;;;3.60;0.40;;;;;;;2.83;100.00;100230.78;5021381;28;20049;-59
2022/12/24 05:47:32;;;;;;;7.60;0.35;;;;;;;2.68;100.00;100223.56;5026558;28;20044;-59
2022/12/24 05:49:58;;;;;;;5.95;1.27;;;;;;;2.57;100.00;100222.78;5027041;28;20018;-57
2022/12/24 05:52:23;;;;;;;4.43;0.55;;;;;;;2.56;100.00;100229.00;5019699;28;20027;-60
2022/12/24 05:54:49;;;;;;;8.50;0.93;;;;;;;2.47;100.00;100231.66;5020156;28;20437;-56
2022/12/24 05:57:15;;;;;;;3.58;0.32;;;;;;;2.45;100.00;100233.59;5020697;28;20116;-55
2022/12/24 05:59:40;;;;;;;4.53;0.20;;;;;;;2.38;100.00;100239.41;5022242;28;20017;-60
2022/12/24 06:02:05;;;;;;;10.68;0.80;;;;;;;2.43;100.00;100240.75;5020026;28;20035;-56
2022/12/24 06:04:31;;;;;;;3.20;1.55;;;;;;;2.43;100.00;100246.84;5018753;28;20084;-53
2022/12/24 06:06:56;;;;;;;5.15;2.50;;;;;;;2.41;100.00;100248.75;5023313;28;20451;-57
2022/12/24 06:09:21;;;;;;;3.47;0.40;;;;;;;2.29;100.00;100245.47;5018076;28;20446;-58
2022/12/24 06:11:47;;;;;;;3.20;0.40;;;;;;;2.30;100.00;100254.19;5023660;28;20443;-58
2022/12/24 06:14:12;;;;;;;2.13;0.43;;;;;;;2.25;100.00;100254.59;5032475;28;20017;-59
2022/12/24 06:16:37;;;;;;;5.43;0.32;;;;;;;2.22;100.00;100254.91;5022828;28;20030;-60
2022/12/24 06:19:03;;;;;;;2.70;0.57;;;;;;;2.19;100.00;100268.22;5029449;28;20101;-58
2022/12/24 06:21:28;;;;;;;5.07;0.35;;;;;;;2.15;100.00;100269.50;5019307;28;20041;-59
2022/12/24 06:23:53;;;;;;;2.22;1.30;;;;;;;2.06;100.00;100267.72;5033368;28;20033;-56
2022/12/24 06:26:21;;;;;;;4.25;0.30;;;;;;;2.06;100.00;100265.09;5024465;28;20026;-60
2022/12/24 06:28:48;;;;;;;1.83;0.30;;;;;;;2.03;100.00;100268.00;5030136;28;20035;-59
2022/12/24 06:31:16;;;;;;;4.38;0.63;;;;;;;2.02;100.00;100263.75;5023298;28;20014;-57
2022/12/24 06:33:41;;;;;;;6.50;2.28;;;;;;;1.98;100.00;100259.75;5027868;28;20030;-56
2022/12/24 06:36:09;;;;;;;3.70;0.52;;;;;;;1.89;100.00;100262.25;5024180;28;20493;-54
2022/12/24 06:38:34;;;;;;;1.77;0.73;;;;;;;1.82;100.00;100261.16;5036972;28;20033;-58
2022/12/24 06:41:03;;;;;;;16.20;0.60;;;;;;;1.86;100.00;100274.75;5025649;28;20022;-54
2022/12/24 06:43:29;;;;;;;4.15;0.40;;;;;;;1.82;100.00;100263.78;5021181;28;20497;-55
2022/12/24 06:45:54;;;;;;;2.95;0.40;;;;;;;1.89;100.00;100270.09;5025116;28;20076;-56
2022/12/24 06:48:20;;;;;;;1.00;0.17;;;;;;;1.77;100.00;100270.38;5022780;28;20520;-58
2022/12/24 06:50:45;;;;;;;2.40;0.15;;;;;;;1.81;100.00;100279.59;5019633;28;20100;-58
2022/12/24 06:53:11;;;;;;;3.33;1.02;;;;;;;1.72;100.00;100278.63;5033560;28;20037;-56
2022/12/24 06:55:36;;;;;;;1.08;0.32;;;;;;;1.64;100.00;100284.56;5021040;28;20426;-56
2022/12/24 06:58:02;;;;;;;1.55;0.28;;;;;;;1.56;100.00;100281.00;5027432;28;20655;-56
2022/12/24 07:00:28;;;;;;;4.32;0.73;;;;;;;1.63;100.00;100290.75;5021470;28;20037;-57
2022/12/24 07:02:53;;;;;;;1.95;0.20;;;;;;;1.55;100.00;100288.00;5019169;28;20037;-58
2022/12/24 07:05:18;;;;;;;5.47;0.45;;;;;;;1.59;100.00;100286.75;5029655;28;20026;-56
2022/12/24 07:07:44;;;;;;;9.00;2.05;;;;;;;1.59;100.00;100288.56;5019121;28;20029;-56
2022/12/24 07:10:11;;;;;;;2.75;0.63;;;;;;;1.59;100.00;100301.63;5023829;28;20032;-57
2022/12/24 07:12:36;;;;;;;4.20;0.40;;;;;;;1.56;100.00;100309.75;5025925;28;20080;-55
2022/12/24 07:15:02;;;;;;;5.47;0.47;;;;;;;1.52;100.00;100317.84;5023340;28;20025;-56
2022/12/24 07:17:27;;;;;;;3.22;0.25;;;;;;;1.46;100.00;100318.38;5021551;28;20554;-59
2022/12/24 07:19:53;;;;;;;7.13;2.25;;;;;;;1.38;100.00;100331.31;5021624;28;20363;-57
2022/12/24 07:22:18;;;;;;;5.28;0.50;;;;;;;1.30;100.00;100336.38;5025754;28;20386;-58
2022/12/24 07:24:44;;;;;;;6.38;0.57;;;;;;;1.26;100.00;100340.22;5024648;28;20394;-60
2022/12/24 07:27:09;;;;;;;2.47;0.55;;;;;;;1.24;100.00;100342.13;5020742;28;20068;-57
2022/12/24 07:29:34;;;;;;;4.10;0.38;;;;;;;1.26;100.00;100342.81;5023981;28;20072;-59
2022/12/24 07:32:00;;;;;;;1.00;0.35;;;;;;;1.31;100.00;100345.88;5026814;28;20029;-56
2022/12/24 07:34:25;;;;;;;5.40;0.28;;;;;;;1.36;100.00;100345.47;5019694;28;20042;-55
2022/12/24 07:36:51;;;;;;;0.63;0.25;;;;;;;1.31;100.00;100351.91;5021480;28;20121;-58
2022/12/24 07:39:16;;;;;;;0.35;0.10;;;;;;;1.31;100.00;100353.69;5018349;28;20105;-56
2022/12/24 07:41:42;;;;;;;2.00;0.17;;;;;;;1.18;100.00;100353.94;5019642;28;20029;-57
2022/12/24 07:44:11;;;;;;;5.07;1.48;;;;;;;1.15;100.00;100354.22;5009805;28;20123;-59
2022/12/24 07:46:36;;;;;;;2.58;0.68;;;;;;;1.08;100.00;100342.63;5014083;28;20132;-60
2022/12/24 07:49:01;;;;;;;2.72;0.45;;;;;;;1.02;100.00;100354.44;5017341;28;20132;-59
2022/12/24 07:51:27;;;;;;;0.20;0.10;;;;;;;1.03;100.00;100345.66;5016072;28;20061;-56
2022/12/24 07:53:52;;;;;;;1.27;0.63;;;;;;;1.11;100.00;100339.78;5020819;28;20052;-59
2022/12/24 07:56:17;;;;;;;1.42;0.35;;;;;;;1.12;100.00;100348.44;5021363;28;20079;-60
2022/12/24 07:58:43;;;;;;;4.85;0.30;;;;;;;1.09;100.00;100354.75;5025639;28;20026;-59
2022/12/24 08:01:10;;;;;;;1.95;0.15;;;;;;;1.05;100.00;100359.41;5022694;28;20338;-58
2022/12/24 08:03:36;;;;;;;3.92;0.22;;;;;;;0.97;100.00;100363.63;5023905;28;20497;-57
2022/12/24 08:06:01;;;;;;;4.78;0.85;;;;;;;0.95;100.00;100358.53;5025349;28;20029;-58
2022/12/24 08:08:26;;;;;;;0.65;0.40;;;;;;;0.91;100.00;100365.00;5028620;28;20090;-58
2022/12/24 08:10:52;;;;;;;3.35;0.50;;;;;;;0.94;100.00;100374.34;5020141;28;20037;-59
2022/12/24 08:13:17;;;;;;;2.80;0.35;;;;;;;1.00;100.00;100384.25;5018934;28;20029;-59
2022/12/24 08:15:43;;;;;;;0.65;0.30;;;;;;;0.99;100.00;100375.59;5018632;28;20021;-60
2022/12/24 08:18:10;;;;;;;0.70;0.50;;;;;;;0.98;100.00;100384.41;5026167;28;20128;-57
2022/12/24 08:20:38;;;;;;;3.30;0.52;;;;;;;0.94;100.00;100384.78;5014739;28;20026;-59
2022/12/24 08:23:03;;;;;;;13.80;1.00;;;;;;;0.86;100.00;100395.88;5018179;28;20037;-57
2022/12/24 08:25:28;;;;;;;2.63;0.35;;;;;;;0.88;100.00;100386.16;5019876;28;20029;-52
2022/12/24 08:27:54;;;;;;;1.58;0.35;;;;;;;0.83;100.00;100390.94;5020425;28;20457;-56
2022/12/24 08:30:19;;;;;;;5.72;1.60;;;;;;;0.79;100.00;100386.91;5023565;28;20030;-56
2022/12/24 08:32:45;;;;;;;6.32;0.30;;;;;;;0.69;100.00;100380.81;5022926;28;20034;-57
2022/12/24 08:35:10;;;;;;;3.30;0.80;;;;;;;0.60;100.00;100385.03;5020110;28;20060;-56
2022/12/24 08:37:35;;;;;;;2.47;0.32;;;;;;;0.51;100.00;100383.19;5027671;28;20068;-60
2022/12/24 08:40:01;;;;;;;2.63;0.75;;;;;;;0.46;100.00;100394.00;5021433;28;20064;-56
2022/12/24 08:42:26;;;;;;;2.63;0.35;;;;;;;0.47;100.00;100395.69;5020885;28;20045;-57
2022/12/24 08:44:52;;;;;;;6.53;2.70;;;;;;;0.58;100.00;100397.38;5026860;28;20116;-58
2022/12/24 08:47:17;;;;;;;1.13;0.30;;;;;;;0.73;100.00;100405.72;5025541;28;20041;-58
2022/12/24 08:49:42;;;;;;;7.43;0.75;;;;;;;0.75;100.00;100398.56;5018521;28;20030;-56
2022/12/24 08:52:08;;;;;;;2.35;0.45;;;;;;;0.83;100.00;100407.41;5029494;28;20124;-55
2022/12/24 08:54:33;;;;;;;2.17;0.22;;;;;;;0.86;100.00;100394.09;5027948;28;20025;-57
2022/12/24 08:56:58;;;;;;;11.20;0.30;;;;;;;0.85;100.00;100396.81;5022258;28;20059;-59
2022/12/24 08:59:24;;;;;;;1.75;1.30;;;;;;;0.78;100.00;100403.53;5023670;28;20471;-56
2022/12/24 09:01:49;;;;;;;0.55;0.25;;;;;;;0.66;100.00;100408.00;5026751;28;20538;-58
2022/12/24 09:04:14;;;;;;;4.05;0.75;;;;;;;0.58;100.00;100394.78;5019141;28;20055;-57
2022/12/24 09:06:40;;;;;;;5.63;0.82;;;;;;;0.51;100.00;100385.78;5017929;28;20014;-56
2022/12/24 09:09:06;;;;;;;6.57;0.60;;;;;;;0.55;100.00;100389.81;5023489;28;20033;-59
2022/12/24 09:11:33;;;;;;;1.50;0.75;;;;;;;0.64;100.00;100397.69;5033708;28;20033;-56
2022/12/24 09:13:59;;;;;;;4.00;0.35;;;;;;;0.59;100.00;100407.66;5020697;28;20156;-56
2022/12/24 09:16:24;;;;;;;1.60;0.40;;;;;;;0.70;100.00;100405.94;5019967;28;20092;-56
2022/12/24 09:18:50;;;;;;;5.47;0.52;;;;;;;0.68;100.00;100402.66;5015021;28;20519;-56
2022/12/24 09:21:16;;;;;;;2.60;1.05;;;;;;;0.69;100.00;100399.09;5021194;28;20026;-57
2022/12/24 09:23:44;;;;;;;3.10;0.32;;;;;;;0.71;100.00;100394.56;5020230;28;20400;-59
2022/12/24 09:26:14;;;;;;;2.83;0.47;;;;;;;0.81;100.00;100398.06;5028666;28;20108;-57
2022/12/24 09:28:40;;;;;;;4.53;0.30;;;;;;;0.78;100.00;100398.31;5025369;28;20467;-57
2022/12/24 09:31:06;;;;;;;0.77;0.43;;;;;;;0.77;100.00;100402.69;5020163;28;20299;-56
2022/12/24 09:33:34;;;;;;;7.10;0.65;;;;;;;0.79;100.00;100407.78;5022708;28;20072;-55
2022/12/24 09:36:00;;;;;;;2.20;0.30;;;;;;;0.78;100.00;100414.00;5030670;28;20029;-55
2022/12/24 09:38:26;;;;;;;1.77;0.17;;;;;;;0.77;100.00;100409.69;5025443;28;20125;-54
2022/12/24 09:40:53;;;;;;;2.38;0.25;;;;;;;0.86;100.00;100411.53;5019698;28;20491;-57
2022/12/24 09:43:22;;;;;;;6.18;1.77;;;;;;;0.95;100.00;100413.38;5021097;28;20030;-55
2022/12/24 09:46:04;;;;;;;3.35;0.50;;;;;;;1.10;100.00;100413.84;5021197;28;20029;-58
2022/12/24 09:48:31;;;;;;;;;;;;;;;1.15;100.00;100413.47;5021016;28;20059;-58
2022/12/24 09:51:17;;;;;;;3.55;0.25;;;;;;;1.06;100.00;100415.91;5025627;28;20382;-58
2022/12/24 09:53:55;;;;;;;6.95;0.47;;;;;;;1.02;100.00;100411.88;5030354;28;20041;-57
2022/12/24 09:56:24;;;;;;;2.47;0.65;;;;;;;1.02;100.00;100414.50;5023515;28;20813;-57
2022/12/24 09:58:56;;;;;;;3.13;1.75;;;;;;;1.07;100.00;100419.34;5022762;28;20033;-55
2022/12/24 10:01:21;;;;;;;0.90;0.30;;;;;;;1.12;100.00;100422.38;5017207;28;20022;-55
2022/12/24 10:03:47;;;;;;;1.25;0.25;;;;;;;1.19;100.00;100427.88;5016249;28;20040;-57
2022/12/24 10:06:23;;;;;;;2.65;1.65;;;;;;;1.26;100.00;100429.03;5020497;28;20057;-55
2022/12/24 10:09:01;;;;;;;4.15;1.05;;;;;;;1.40;100.00;100423.44;5011269;28;20030;-56
2022/12/24 10:11:44;;;;;;;3.10;0.75;;;;;;;1.53;100.00;100426.63;5018186;28;20124;-59
2022/12/24 10:14:18;;;;;;;9.63;2.60;;;;;;;1.62;100.00;100434.63;5009690;28;20036;-58
2022/12/24 10:17:02;;;;;;;10.75;2.15;;;;;;;1.78;100.00;100427.09;5008044;28;20738;-58
2022/12/24 10:19:44;;;;;;;6.55;2.28;;;;;;;1.87;100.00;100431.50;5006136;28;20033;-59
2022/12/24 10:22:31;;;;;;;0.77;0.50;;;;;;;1.94;100.00;100424.78;5004720;28;20060;-57
2022/12/24 10:25:16;;;;;;;6.25;1.75;;;;;;;2.00;100.00;100440.91;5007145;28;20160;-57
2022/12/24 10:27:42;;;;;;;2.85;1.08;;;;;;;2.01;100.00;100440.75;5002587;28;20837;-54
2022/12/24 10:30:17;;;;;;;1.08;0.38;;;;;;;2.03;100.00;100443.22;5009276;28;20037;-56
2022/12/24 10:32:43;;;;;;;2.38;0.30;;;;;;;2.04;100.00;100435.25;5014523;28;20068;-53
2022/12/24 10:35:43;;;;;;;6.10;0.68;;;;;;;2.12;100.00;100437.19;5002023;28;20025;-59
2022/12/24 10:38:09;;;;;;;0.20;0.10;;;;;;;2.17;100.00;100442.84;5013460;28;20080;-55
2022/12/24 10:40:50;;;;;;;5.80;0.65;;;;;;;2.25;100.00;100450.00;5027869;28;20025;-58
2022/12/24 10:43:24;;;;;;;3.45;0.60;;;;;;;2.34;100.00;100449.16;5021251;28;20029;-56
2022/12/24 10:45:56;;;;;;;10.02;1.33;;;;;;;2.35;100.00;100446.41;5028840;28;20029;-57
2022/12/24 10:48:35;;;;;;;0.75;0.10;;;;;;;2.43;100.00;100445.72;5025443;28;20045;-58
2022/12/24 10:51:12;;;;;;;5.55;0.70;;;;;;;2.48;100.00;100445.28;5024274;28;20399;-54
2022/12/24 10:53:37;;;;;;;6.25;0.40;;;;;;;2.46;100.00;100434.97;5020322;28;20034;-56
2022/12/24 10:56:05;;;;;;;4.68;0.30;;;;;;;2.54;100.00;100442.13;5024886;28;20029;-55
2022/12/24 10:58:32;;;;;;;3.13;0.22;;;;;;;2.64;100.00;100442.94;5023001;28;20033;-54
2022/12/24 11:00:58;;;;;;;0.40;0.10;;;;;;;2.69;100.00;100445.97;5029150;28;20467;-57
2022/12/24 11:03:29;;;;;;;3.92;0.60;;;;;;;2.83;100.00;100448.13;5021530;28;20040;-59
2022/12/24 11:06:06;;;;;;;;;;;;;;;2.94;100.00;100456.78;5022269;28;20487;-58
2022/12/24 11:08:33;;;;;;;6.70;0.55;;;;;;;3.03;100.00;100458.56;5023380;28;19921;-57
2022/12/24 11:11:12;;;;;;;3.35;0.43;;;;;;;3.19;100.00;100453.53;5019266;28;20489;-54
2022/12/24 11:13:57;;;;;;;6.00;0.85;;;;;;;3.26;100.00;100453.78;5016676;28;20030;-53
2022/12/24 11:16:34;;;;;;;0.95;0.30;;;;;;;3.28;100.00;100457.91;5013695;28;20033;-56
2022/12/24 11:19:17;;;;;;;4.00;0.20;;;;;;;3.30;100.00;100462.19;5011067;28;20929;-57
2022/12/24 11:21:42;;;;;;;6.30;0.35;;;;;;;3.31;100.00;100477.78;5016554;28;20486;-57
2022/12/24 11:24:11;;;;;;;1.30;0.85;;;;;;;3.38;100.00;100478.00;5022307;28;20037;-55
2022/12/24 11:26:37;;;;;;;2.47;1.15;;;;;;;3.45;100.00;100486.94;5017986;28;20501;-53
2022/12/24 11:29:14;;;;;;;3.13;0.43;;;;;;;3.60;100.00;100480.25;5025408;28;20155;-53
2022/12/24 11:31:45;;;;;;;0.65;0.25;;;;;;;3.68;100.00;100476.91;5021878;28;20056;-55
2022/12/24 11:34:28;;;;;;;1.80;0.20;;;;;;;3.79;100.00;100474.06;5016569;28;20040;-54
2022/12/24 11:37:08;;;;;;;1.27;0.93;;;;;;;3.91;100.00;100470.28;5019756;28;20064;-56
2022/12/24 11:39:40;;;;;;;4.15;0.82;;;;;;;4.03;100.00;100455.16;5032702;28;20060;-52
2022/12/24 11:42:05;;;;;;;;;;;;;;;4.16;100.00;100460.03;5035214;28;20471;-55